Chellissa — WAR3497 — position and weather

sailwx.info

Track history (hours):
 
Tides and Currents Weather Stations Pressure Air Temp Water Temp Dewpoint Dewpoint Depression Visibility Wind Speed Wind Dir Waves Ship Positions

Chellissa

Owner: CHELLISSA INC, CHARLESTON, OR. More information available from US FCC via Universal Licensing System and Coast Guard Vessel Documentation Center.

Last reported at 2017-Oct-17 16:30 UTC. Time now 2017-Oct-17 16:49 UTC.
Position N 46°11' W 123°52'.

Length 28 m; draft 4 m.

Type: Fishing. MMSI: 367162190.

Date/timePositionNaut miles runAvg speedWind from/ knotsBaromVisibWave heightAir tempDewpointWater temp
2017-Oct-17 16:30N 46°11' W 123°52'0 0.0
2017-Oct-17 16:01N 46°11' W 123°52'0 0.0
2017-Oct-17 15:31N 46°11' W 123°52'0 0.0
2017-Oct-17 15:00N 46°11' W 123°52'0 0.0
2017-Oct-17 14:30N 46°11' W 123°52'0 0.0
2017-Oct-17 14:00N 46°11' W 123°52'0 0.0
2017-Oct-17 13:31N 46°11' W 123°52'0 0.0
2017-Oct-17 13:01N 46°11' W 123°52'0 0.0
2017-Oct-17 12:30N 46°11' W 123°52'0 0.0
2017-Oct-17 12:00N 46°11' W 123°52'0 0.0
2017-Oct-17 11:30N 46°11' W 123°52'0 0.0
2017-Oct-17 11:00N 46°11' W 123°52'0 0.0
2017-Oct-17 10:30N 46°11' W 123°52'0 0.0
2017-Oct-17 10:00N 46°11' W 123°52'0 0.0
2017-Oct-17 09:30N 46°11' W 123°52'0 0.0
2017-Oct-17 09:00N 46°11' W 123°52'0 0.0
2017-Oct-17 08:30N 46°11' W 123°52'0 0.0
2017-Oct-17 08:00N 46°11' W 123°52'0 0.0
2017-Oct-17 07:30N 46°11' W 123°52'0 0.0
2017-Oct-17 07:00N 46°11' W 123°52'0 0.0
2017-Oct-17 06:31N 46°11' W 123°52'0 0.0
2017-Oct-17 06:01N 46°11' W 123°52'0 0.0
2017-Oct-17 05:30N 46°11' W 123°52'0 0.0
2017-Oct-17 05:00N 46°11' W 123°52'0 0.0
2017-Oct-17 04:31N 46°11' W 123°52'0 0.0
2017-Oct-17 04:00N 46°11' W 123°52'0 0.0
2017-Oct-17 03:30N 46°11' W 123°52'0 0.0
2017-Oct-17 03:00N 46°11' W 123°52'0 0.0
2017-Oct-17 02:30N 46°11' W 123°52'0 0.0
2017-Oct-17 02:00N 46°11' W 123°52'0 0.0
2017-Oct-17 01:31N 46°11' W 123°52'0 0.0
2017-Oct-17 01:00N 46°11' W 123°52'0 0.0
2017-Oct-17 00:31N 46°11' W 123°52'0 0.0
2017-Oct-17 00:00N 46°11' W 123°52'0 0.0
2017-Oct-16 23:30N 46°11' W 123°52'0 0.0
2017-Oct-16 23:00N 46°11' W 123°52'0 0.0
2017-Oct-16 22:31N 46°11' W 123°52'1 1.4
2017-Oct-16 22:00N 46°11' W 123°53'3 6.2
2017-Oct-16 21:30N 46°13' W 123°57'3 6.4
2017-Oct-16 21:00N 46°15' W 124°00'3 6.2
2017-Oct-16 20:30N 46°15' W 124°05'4 6.9
2017-Oct-16 20:00N 46°11' W 124°05'4 9.0
2017-Oct-16 19:30N 46°07' W 124°05'5 9.1
2017-Oct-16 19:00N 46°02' W 124°05'4 8.9
2017-Oct-16 18:30N 45°58' W 124°04'4 8.8
2017-Oct-16 18:00N 45°53' W 124°04'4 8.6
2017-Oct-16 17:30N 45°49' W 124°04'4 8.7
2017-Oct-16 17:00N 45°45' W 124°04'5 9.0
2017-Oct-16 16:30N 45°40' W 124°04'5 9.2
2017-Oct-16 16:00N 45°36' W 124°04'5 9.1
2017-Oct-16 15:30N 45°31' W 124°04'4 8.8
2017-Oct-16 15:00N 45°27' W 124°05'9 8.6
2017-Oct-16 13:58N 45°18' W 124°05'4 8.5
2017-Oct-16 13:30N 45°14' W 124°04'5 8.6
2017-Oct-16 12:58N 45°09' W 124°04'83 5.3
2017-Oct-15 21:21N 43°52' W 124°49'1 2.8
2017-Oct-15 21:00N 43°53' W 124°50'2 3.1
2017-Oct-15 20:29N 43°53' W 124°52'69 9.0
2017-Oct-15 12:51N 45°02' W 124°48'3 9.2
2017-Oct-15 12:30N 45°05' W 124°47'5 9.3
2017-Oct-15 12:00N 45°09' W 124°46'5 9.2
2017-Oct-15 11:30N 45°14' W 124°45'5 9.3
2017-Oct-15 11:00N 45°19' W 124°44'5 9.3
2017-Oct-15 10:30N 45°23' W 124°43'5 9.4
2017-Oct-15 10:00N 45°28' W 124°42'5 9.3
2017-Oct-15 09:30N 45°32' W 124°42'5 9.1
2017-Oct-15 09:00N 45°37' W 124°41'4 8.9
2017-Oct-15 08:30N 45°41' W 124°40'4 8.8
2017-Oct-15 08:01N 45°46' W 124°40'5 9.2
2017-Oct-15 07:30N 45°50' W 124°39'5 9.1
2017-Oct-15 07:00N 45°55' W 124°38'4 9.0
2017-Oct-15 06:30N 45°59' W 124°37'4 8.9
2017-Oct-15 06:00N 46°04' W 124°36'5 9.0
2017-Oct-15 05:30N 46°08' W 124°35'4 8.9
2017-Oct-15 05:00N 46°13' W 124°34'4 8.9
2017-Oct-15 04:30N 46°17' W 124°33'5 9.0
2017-Oct-15 04:00N 46°21' W 124°33'4 8.9
2017-Oct-15 03:30N 46°26' W 124°32'5 9.3
2017-Oct-15 03:00N 46°31' W 124°32'5 9.2
2017-Oct-15 02:30N 46°35' W 124°32'7 8.7
2017-Oct-15 01:41N 46°42' W 124°34'3 8.7
2017-Oct-15 01:20N 46°45' W 124°36'3 8.5
2017-Oct-15 01:00N 46°47' W 124°38'4 8.3
2017-Oct-15 00:30N 46°51' W 124°40'10 0.6
2017-Oct-14 09:38N 46°60' W 124°35'1 7.5
2017-Oct-14 09:30N 46°59' W 124°35'4 7.4
2017-Oct-14 09:00N 46°56' W 124°32'4 7.2
2017-Oct-14 08:30N 46°52' W 124°30'4 7.2
2017-Oct-14 08:00N 46°49' W 124°28'4 7.3
2017-Oct-14 07:30N 46°46' W 124°26'4 7.2
2017-Oct-14 07:00N 46°42' W 124°24'4 7.1
2017-Oct-14 06:30N 46°39' W 124°22'3 7.0
2017-Oct-14 06:00N 46°36' W 124°19'4 7.1
2017-Oct-14 05:30N 46°33' W 124°17'4 7.4
2017-Oct-14 05:00N 46°30' W 124°15'4 7.3
2017-Oct-14 04:27N 46°26' W 124°12'3 7.2
2017-Oct-14 04:00N 46°23' W 124°11'5 7.2
2017-Oct-14 03:21N 46°19' W 124°08'3 7.4
2017-Oct-14 03:01N 46°16' W 124°07'3 6.8
2017-Oct-14 02:30N 46°15' W 124°02'4 7.4
2017-Oct-14 02:00N 46°13' W 123°57'4 7.4
2017-Oct-14 01:30N 46°11' W 123°53'1 1.4
2017-Oct-14 01:00N 46°11' W 123°52'0 0.0
2017-Oct-14 00:31N 46°11' W 123°52'0 0.0
2017-Oct-14 00:00N 46°11' W 123°52'0 0.0
2017-Oct-13 23:31N 46°11' W 123°52'0 0.0
2017-Oct-13 23:00N 46°11' W 123°52'0 0.0
2017-Oct-13 22:30N 46°11' W 123°52'0 0.0
2017-Oct-13 22:00N 46°11' W 123°52'0 0.0
2017-Oct-13 21:16N 46°11' W 123°52'0 0.0
2017-Oct-13 21:00N 46°11' W 123°52'0 0.0
2017-Oct-13 20:30N 46°11' W 123°52'0 0.0
2017-Oct-13 20:00N 46°11' W 123°52'0 0.0
2017-Oct-13 19:30N 46°11' W 123°52'0 0.0
2017-Oct-13 19:01N 46°11' W 123°52'0 0.0
2017-Oct-13 18:21N 46°11' W 123°52'0 0.0
2017-Oct-13 18:01N 46°11' W 123°52'0 0.0
2017-Oct-13 17:14N 46°11' W 123°52'0 0.0
2017-Oct-13 17:00N 46°11' W 123°52'0 0.0
2017-Oct-13 16:30N 46°11' W 123°52'0 0.0
2017-Oct-13 16:00N 46°11' W 123°52'0 0.0
2017-Oct-13 15:30N 46°11' W 123°52'0 0.0
2017-Oct-13 15:00N 46°11' W 123°52'0 0.0
2017-Oct-13 14:30N 46°11' W 123°52'0 0.0
2017-Oct-13 13:51N 46°11' W 123°52'0 0.0
2017-Oct-13 13:30N 46°11' W 123°52'0 0.0
2017-Oct-13 12:50N 46°11' W 123°52'0 0.0
2017-Oct-13 12:30N 46°11' W 123°52'0 0.0
2017-Oct-13 11:56N 46°11' W 123°52'0 0.6
2017-Oct-13 11:30N 46°11' W 123°52'4 7.9
2017-Oct-13 11:00N 46°13' W 123°57'4 8.0
2017-Oct-13 10:30N 46°15' W 124°02'3 6.5
2017-Oct-13 10:00N 46°15' W 124°07'4 5.1
2017-Oct-13 09:15N 46°18' W 124°09'1 4.9
2017-Oct-13 09:00N 46°20' W 124°09'4 7.8
2017-Oct-13 08:30N 46°23' W 124°11'2 2.8
2017-Oct-13 07:52N 46°25' W 124°11'2 4.9
2017-Oct-13 07:30N 46°27' W 124°12'3 5.0
2017-Oct-13 06:59N 46°29' W 124°13'2 4.9
2017-Oct-13 06:30N 46°32' W 124°13'3 4.7
2017-Oct-13 05:55N 46°34' W 124°14'2 4.5
2017-Oct-13 05:30N 46°36' W 124°15'2 4.7
2017-Oct-13 05:00N 46°38' W 124°16'3 5.1
2017-Oct-13 04:30N 46°41' W 124°17'3 5.2
2017-Oct-13 04:00N 46°43' W 124°17'3 5.3
2017-Oct-13 03:30N 46°46' W 124°18'2 4.9
2017-Oct-13 03:00N 46°48' W 124°19'3 4.7
2017-Oct-13 02:21N 46°51' W 124°19'2 4.7
2017-Oct-13 02:00N 46°53' W 124°20'3 5.0
2017-Oct-13 01:30N 46°55' W 124°21'3 5.6
2017-Oct-13 01:00N 46°58' W 124°23'15 0.5
2017-Oct-11 21:55N 46°58' W 124°44'3 7.5
2017-Oct-11 21:29N 46°56' W 124°41'4 7.7
2017-Oct-11 21:00N 46°53' W 124°37'4 8.1
2017-Oct-11 20:28N 46°49' W 124°36'4 8.2
2017-Oct-11 20:00N 46°45' W 124°34'4 8.0
2017-Oct-11 19:30N 46°42' W 124°32'4 8.2
2017-Oct-11 19:00N 46°38' W 124°29'4 8.1
2017-Oct-11 18:30N 46°34' W 124°29'4 7.9
2017-Oct-11 18:00N 46°30' W 124°30'3 5.9
2017-Oct-11 17:30N 46°32' W 124°33'4 8.6
2017-Oct-11 17:00N 46°34' W 124°39'40 2.3
2017-Oct-11 00:00N 46°11' W 123°52'0 0.0
2017-Oct-10 23:30N 46°11' W 123°52'0 0.0
2017-Oct-10 23:00N 46°11' W 123°52'0 0.0
2017-Oct-10 22:30N 46°11' W 123°52'0 0.0
2017-Oct-10 22:00N 46°11' W 123°52'0 0.0
2017-Oct-10 21:30N 46°11' W 123°52'0 0.0
2017-Oct-10 21:00N 46°11' W 123°52'0 0.0
2017-Oct-10 20:30N 46°11' W 123°52'0 0.0
2017-Oct-10 20:01N 46°11' W 123°52'0 0.0
2017-Oct-10 19:30N 46°11' W 123°52'0 0.0
2017-Oct-10 19:01N 46°11' W 123°52'0 0.5
2017-Oct-10 18:30N 46°11' W 123°52'3 6.3
2017-Oct-10 18:00N 46°12' W 123°56'3 6.3
2017-Oct-10 17:30N 46°15' W 123°60'3 5.3
2017-Oct-10 17:00N 46°15' W 124°03'2 4.3
2017-Oct-10 16:31N 46°14' W 124°06'4 7.2
2017-Oct-10 16:00N 46°11' W 124°06'4 7.2
2017-Oct-10 15:26N 46°07' W 124°05'3 7.7
2017-Oct-10 15:00N 46°03' W 124°04'8 7.8
2017-Oct-10 14:00N 45°56' W 124°04'4 7.6
2017-Oct-10 13:30N 45°52' W 124°03'4 7.8
2017-Oct-10 13:00N 45°48' W 124°03'6 7.4
2017-Oct-10 12:15N 45°42' W 124°03'2 7.4
2017-Oct-10 12:00N 45°41' W 124°03'4 7.3
2017-Oct-10 11:30N 45°37' W 124°04'4 7.3
2017-Oct-10 11:00N 45°33' W 124°04'4 7.2
2017-Oct-10 10:30N 45°30' W 124°03'3 6.9
2017-Oct-10 10:00N 45°26' W 124°04'5 6.8
2017-Oct-10 09:18N 45°21' W 124°04'68 6.3
2017-Oct-09 22:36N 44°19' W 124°40'1 6.4
2017-Oct-09 22:29N 44°18' W 124°40'3 6.5
2017-Oct-09 22:00N 44°17' W 124°44'3 6.5
2017-Oct-09 21:30N 44°15' W 124°48'3 6.9
2017-Oct-09 21:00N 44°13' W 124°52'3 7.0
2017-Oct-09 20:30N 44°11' W 124°55'1 2.0
2017-Oct-09 20:00N 44°10' W 124°57'1 2.3
2017-Oct-09 19:30N 44°11' W 124°58'3 2.2
2017-Oct-09 18:19N 44°14' W 124°57'1 2.7
2017-Oct-09 18:00N 44°14' W 124°56'18 3.1
2017-Oct-09 11:59N 44°32' W 124°50'37 9.2
2017-Oct-09 08:00N 45°07' W 124°35'4 9.2
2017-Oct-09 07:30N 45°12' W 124°33'5 9.5
2017-Oct-09 07:00N 45°16' W 124°31'5 9.5
2017-Oct-09 06:30N 45°21' W 124°29'5 9.5
2017-Oct-09 06:01N 45°25' W 124°28'5 9.3
2017-Oct-09 05:30N 45°30' W 124°25'5 9.1
2017-Oct-09 05:00N 45°34' W 124°24'5 9.3
2017-Oct-09 04:30N 45°39' W 124°22'5 9.2
2017-Oct-09 04:00N 45°43' W 124°20'5 9.4
2017-Oct-09 03:31N 45°47' W 124°18'5 9.4
2017-Oct-09 03:00N 45°52' W 124°16'5 9.2
2017-Oct-09 02:30N 45°56' W 124°14'4 8.9
2017-Oct-09 02:00N 46°01' W 124°13'4 8.7
2017-Oct-09 01:31N 46°05' W 124°11'5 7.8
2017-Oct-09 00:49N 46°10' W 124°08'3 8.7
2017-Oct-09 00:30N 46°12' W 124°07'4 8.2
2017-Oct-09 00:00N 46°15' W 124°03'4 8.8
2017-Oct-08 23:31N 46°13' W 123°57'4 7.2
2017-Oct-08 23:00N 46°11' W 123°53'1 0.8
2017-Oct-08 22:16N 46°11' W 123°52'0 0.0
2017-Oct-08 22:01N 46°11' W 123°52'0 0.0
2017-Oct-08 21:30N 46°11' W 123°52'0 0.0
2017-Oct-08 21:00N 46°11' W 123°52'0 0.0
2017-Oct-08 20:30N 46°11' W 123°52'0 0.0
2017-Oct-08 20:01N 46°11' W 123°52'0 0.0
2017-Oct-08 19:30N 46°11' W 123°52'0 0.0
2017-Oct-08 19:00N 46°11' W 123°52'0 0.0
2017-Oct-08 18:30N 46°11' W 123°52'0 0.0
2017-Oct-08 17:47N 46°11' W 123°52'0 0.0
2017-Oct-08 17:31N 46°11' W 123°52'0 0.0
2017-Oct-08 17:00N 46°11' W 123°52'0 0.0
2017-Oct-08 16:30N 46°11' W 123°52'0 0.0
2017-Oct-08 16:00N 46°11' W 123°52'0 0.0
2017-Oct-08 15:30N 46°11' W 123°52'0 0.0
2017-Oct-08 14:47N 46°11' W 123°52'0 0.0
2017-Oct-08 14:25N 46°11' W 123°52'0 0.0
2017-Oct-08 14:01N 46°11' W 123°52'0 0.0
2017-Oct-08 13:30N 46°11' W 123°52'0 0.0
2017-Oct-08 13:01N 46°11' W 123°52'0 0.0
2017-Oct-08 12:30N 46°11' W 123°52'0 0.0
2017-Oct-08 12:01N 46°11' W 123°52'0 0.0
2017-Oct-08 11:30N 46°11' W 123°52'0 0.0
2017-Oct-08 11:01N 46°11' W 123°52'0 0.0
2017-Oct-08 10:30N 46°11' W 123°52'0 0.0
2017-Oct-08 10:00N 46°11' W 123°52'0 0.0
2017-Oct-08 09:30N 46°11' W 123°52'0 0.0
2017-Oct-08 09:00N 46°11' W 123°52'0 0.0
2017-Oct-08 08:20N 46°11' W 123°52'0 0.0
2017-Oct-08 08:01N 46°11' W 123°52'0 0.0
2017-Oct-08 07:30N 46°11' W 123°52'0 0.0
2017-Oct-08 07:00N 46°11' W 123°52'0 0.0
2017-Oct-08 06:30N 46°11' W 123°52'0 0.0
2017-Oct-08 06:00N 46°11' W 123°52'0 0.0
2017-Oct-08 05:30N 46°11' W 123°52'0 0.0
2017-Oct-08 05:00N 46°11' W 123°52'0 0.0
2017-Oct-08 04:30N 46°11' W 123°52'0 0.0
2017-Oct-08 04:00N 46°11' W 123°52'0 0.0
2017-Oct-08 03:20N 46°11' W 123°52'0 0.0
2017-Oct-08 03:00N 46°11' W 123°52'0 0.0
2017-Oct-08 02:30N 46°11' W 123°52'0 0.0
2017-Oct-08 02:00N 46°11' W 123°52'0 0.0
2017-Oct-08 01:30N 46°11' W 123°52'0 0.0
2017-Oct-08 00:58N 46°11' W 123°52'0 0.0
2017-Oct-08 00:30N 46°11' W 123°52'0 0.0
2017-Oct-08 00:00N 46°11' W 123°52'0 0.0
2017-Oct-07 23:31N 46°11' W 123°52'0 0.0
2017-Oct-07 23:00N 46°11' W 123°52'0 0.0
2017-Oct-07 22:31N 46°11' W 123°52'0 0.0
2017-Oct-07 22:00N 46°11' W 123°52'0 0.0
2017-Oct-07 21:31N 46°11' W 123°52'0 0.0
2017-Oct-07 21:00N 46°11' W 123°52'4 7.1
2017-Oct-07 20:30N 46°13' W 123°57'510.7
2017-Oct-07 20:00N 46°15' W 124°03'5 9.9
2017-Oct-07 19:30N 46°13' W 124°09'5 9.4
2017-Oct-07 19:00N 46°10' W 124°14'5 9.5
2017-Oct-07 18:30N 46°06' W 124°19'5 9.5
2017-Oct-07 18:00N 46°02' W 124°23'5 9.7
2017-Oct-07 17:30N 45°59' W 124°28'  
Track history (hours):
 
Tides and Currents Weather Stations Pressure Air Temp Water Temp Dewpoint Dewpoint Depression Visibility Wind Speed Wind Dir Waves Ship Positions

Chellissa

Owner: CHELLISSA INC, CHARLESTON, OR. More information available from US FCC via Universal Licensing System and Coast Guard Vessel Documentation Center.

Last reported at 2017-Oct-17 16:30 UTC. Time now 2017-Oct-17 16:49 UTC.
Position N 46°11' W 123°52'.

Length 28 m; draft 4 m.

Type: Fishing. MMSI: 367162190.

Date/timePositionNaut miles runAvg speedWind from/ knotsBaromVisibWave heightAir tempDewpointWater temp
2017-Oct-17 16:30N 46°11' W 123°52'0 0.0
2017-Oct-17 16:01N 46°11' W 123°52'0 0.0
2017-Oct-17 15:31N 46°11' W 123°52'0 0.0
2017-Oct-17 15:00N 46°11' W 123°52'0 0.0
2017-Oct-17 14:30N 46°11' W 123°52'0 0.0
2017-Oct-17 14:00N 46°11' W 123°52'0 0.0
2017-Oct-17 13:31N 46°11' W 123°52'0 0.0
2017-Oct-17 13:01N 46°11' W 123°52'0 0.0
2017-Oct-17 12:30N 46°11' W 123°52'0 0.0
2017-Oct-17 12:00N 46°11' W 123°52'0 0.0
2017-Oct-17 11:30N 46°11' W 123°52'0 0.0
2017-Oct-17 11:00N 46°11' W 123°52'0 0.0
2017-Oct-17 10:30N 46°11' W 123°52'0 0.0
2017-Oct-17 10:00N 46°11' W 123°52'0 0.0
2017-Oct-17 09:30N 46°11' W 123°52'0 0.0
2017-Oct-17 09:00N 46°11' W 123°52'0 0.0
2017-Oct-17 08:30N 46°11' W 123°52'0 0.0
2017-Oct-17 08:00N 46°11' W 123°52'0 0.0
2017-Oct-17 07:30N 46°11' W 123°52'0 0.0
2017-Oct-17 07:00N 46°11' W 123°52'0 0.0
2017-Oct-17 06:31N 46°11' W 123°52'0 0.0
2017-Oct-17 06:01N 46°11' W 123°52'0 0.0
2017-Oct-17 05:30N 46°11' W 123°52'0 0.0
2017-Oct-17 05:00N 46°11' W 123°52'0 0.0
2017-Oct-17 04:31N 46°11' W 123°52'0 0.0
2017-Oct-17 04:00N 46°11' W 123°52'0 0.0
2017-Oct-17 03:30N 46°11' W 123°52'0 0.0
2017-Oct-17 03:00N 46°11' W 123°52'0 0.0
2017-Oct-17 02:30N 46°11' W 123°52'0 0.0
2017-Oct-17 02:00N 46°11' W 123°52'0 0.0
2017-Oct-17 01:31N 46°11' W 123°52'0 0.0
2017-Oct-17 01:00N 46°11' W 123°52'0 0.0
2017-Oct-17 00:31N 46°11' W 123°52'0 0.0
2017-Oct-17 00:00N 46°11' W 123°52'0 0.0
2017-Oct-16 23:30N 46°11' W 123°52'0 0.0
2017-Oct-16 23:00N 46°11' W 123°52'0 0.0
2017-Oct-16 22:31N 46°11' W 123°52'1 1.4
2017-Oct-16 22:00N 46°11' W 123°53'3 6.2
2017-Oct-16 21:30N 46°13' W 123°57'3 6.4
2017-Oct-16 21:00N 46°15' W 124°00'3 6.2
2017-Oct-16 20:30N 46°15' W 124°05'4 6.9
2017-Oct-16 20:00N 46°11' W 124°05'4 9.0
2017-Oct-16 19:30N 46°07' W 124°05'5 9.1
2017-Oct-16 19:00N 46°02' W 124°05'4 8.9
2017-Oct-16 18:30N 45°58' W 124°04'4 8.8
2017-Oct-16 18:00N 45°53' W 124°04'4 8.6
2017-Oct-16 17:30N 45°49' W 124°04'4 8.7
2017-Oct-16 17:00N 45°45' W 124°04'5 9.0
2017-Oct-16 16:30N 45°40' W 124°04'5 9.2
2017-Oct-16 16:00N 45°36' W 124°04'5 9.1
2017-Oct-16 15:30N 45°31' W 124°04'4 8.8
2017-Oct-16 15:00N 45°27' W 124°05'9 8.6
2017-Oct-16 13:58N 45°18' W 124°05'4 8.5
2017-Oct-16 13:30N 45°14' W 124°04'5 8.6
2017-Oct-16 12:58N 45°09' W 124°04'83 5.3
2017-Oct-15 21:21N 43°52' W 124°49'1 2.8
2017-Oct-15 21:00N 43°53' W 124°50'2 3.1
2017-Oct-15 20:29N 43°53' W 124°52'69 9.0
2017-Oct-15 12:51N 45°02' W 124°48'3 9.2
2017-Oct-15 12:30N 45°05' W 124°47'5 9.3
2017-Oct-15 12:00N 45°09' W 124°46'5 9.2
2017-Oct-15 11:30N 45°14' W 124°45'5 9.3
2017-Oct-15 11:00N 45°19' W 124°44'5 9.3
2017-Oct-15 10:30N 45°23' W 124°43'5 9.4
2017-Oct-15 10:00N 45°28' W 124°42'5 9.3
2017-Oct-15 09:30N 45°32' W 124°42'5 9.1
2017-Oct-15 09:00N 45°37' W 124°41'4 8.9
2017-Oct-15 08:30N 45°41' W 124°40'4 8.8
2017-Oct-15 08:01N 45°46' W 124°40'5 9.2
2017-Oct-15 07:30N 45°50' W 124°39'5 9.1
2017-Oct-15 07:00N 45°55' W 124°38'4 9.0
2017-Oct-15 06:30N 45°59' W 124°37'4 8.9
2017-Oct-15 06:00N 46°04' W 124°36'5 9.0
2017-Oct-15 05:30N 46°08' W 124°35'4 8.9
2017-Oct-15 05:00N 46°13' W 124°34'4 8.9
2017-Oct-15 04:30N 46°17' W 124°33'5 9.0
2017-Oct-15 04:00N 46°21' W 124°33'4 8.9
2017-Oct-15 03:30N 46°26' W 124°32'5 9.3
2017-Oct-15 03:00N 46°31' W 124°32'5 9.2
2017-Oct-15 02:30N 46°35' W 124°32'7 8.7
2017-Oct-15 01:41N 46°42' W 124°34'3 8.7
2017-Oct-15 01:20N 46°45' W 124°36'3 8.5
2017-Oct-15 01:00N 46°47' W 124°38'4 8.3
2017-Oct-15 00:30N 46°51' W 124°40'10 0.6
2017-Oct-14 09:38N 46°60' W 124°35'1 7.5
2017-Oct-14 09:30N 46°59' W 124°35'4 7.4
2017-Oct-14 09:00N 46°56' W 124°32'4 7.2
2017-Oct-14 08:30N 46°52' W 124°30'4 7.2
2017-Oct-14 08:00N 46°49' W 124°28'4 7.3
2017-Oct-14 07:30N 46°46' W 124°26'4 7.2
2017-Oct-14 07:00N 46°42' W 124°24'4 7.1
2017-Oct-14 06:30N 46°39' W 124°22'3 7.0
2017-Oct-14 06:00N 46°36' W 124°19'4 7.1
2017-Oct-14 05:30N 46°33' W 124°17'4 7.4
2017-Oct-14 05:00N 46°30' W 124°15'4 7.3
2017-Oct-14 04:27N 46°26' W 124°12'3 7.2
2017-Oct-14 04:00N 46°23' W 124°11'5 7.2
2017-Oct-14 03:21N 46°19' W 124°08'3 7.4
2017-Oct-14 03:01N 46°16' W 124°07'3 6.8
2017-Oct-14 02:30N 46°15' W 124°02'4 7.4
2017-Oct-14 02:00N 46°13' W 123°57'4 7.4
2017-Oct-14 01:30N 46°11' W 123°53'1 1.4
2017-Oct-14 01:00N 46°11' W 123°52'0 0.0
2017-Oct-14 00:31N 46°11' W 123°52'0 0.0
2017-Oct-14 00:00N 46°11' W 123°52'0 0.0
2017-Oct-13 23:31N 46°11' W 123°52'0 0.0
2017-Oct-13 23:00N 46°11' W 123°52'0 0.0
2017-Oct-13 22:30N 46°11' W 123°52'0 0.0
2017-Oct-13 22:00N 46°11' W 123°52'0 0.0
2017-Oct-13 21:16N 46°11' W 123°52'0 0.0
2017-Oct-13 21:00N 46°11' W 123°52'0 0.0
2017-Oct-13 20:30N 46°11' W 123°52'0 0.0
2017-Oct-13 20:00N 46°11' W 123°52'0 0.0
2017-Oct-13 19:30N 46°11' W 123°52'0 0.0
2017-Oct-13 19:01N 46°11' W 123°52'0 0.0
2017-Oct-13 18:21N 46°11' W 123°52'0 0.0
2017-Oct-13 18:01N 46°11' W 123°52'0 0.0
2017-Oct-13 17:14N 46°11' W 123°52'0 0.0
2017-Oct-13 17:00N 46°11' W 123°52'0 0.0
2017-Oct-13 16:30N 46°11' W 123°52'0 0.0
2017-Oct-13 16:00N 46°11' W 123°52'0 0.0
2017-Oct-13 15:30N 46°11' W 123°52'0 0.0
2017-Oct-13 15:00N 46°11' W 123°52'0 0.0
2017-Oct-13 14:30N 46°11' W 123°52'0 0.0
2017-Oct-13 13:51N 46°11' W 123°52'0 0.0
2017-Oct-13 13:30N 46°11' W 123°52'0 0.0
2017-Oct-13 12:50N 46°11' W 123°52'0 0.0
2017-Oct-13 12:30N 46°11' W 123°52'0 0.0
2017-Oct-13 11:56N 46°11' W 123°52'0 0.6
2017-Oct-13 11:30N 46°11' W 123°52'4 7.9
2017-Oct-13 11:00N 46°13' W 123°57'4 8.0
2017-Oct-13 10:30N 46°15' W 124°02'3 6.5
2017-Oct-13 10:00N 46°15' W 124°07'4 5.1
2017-Oct-13 09:15N 46°18' W 124°09'1 4.9
2017-Oct-13 09:00N 46°20' W 124°09'4 7.8
2017-Oct-13 08:30N 46°23' W 124°11'2 2.8
2017-Oct-13 07:52N 46°25' W 124°11'2 4.9
2017-Oct-13 07:30N 46°27' W 124°12'3 5.0
2017-Oct-13 06:59N 46°29' W 124°13'2 4.9
2017-Oct-13 06:30N 46°32' W 124°13'3 4.7
2017-Oct-13 05:55N 46°34' W 124°14'2 4.5
2017-Oct-13 05:30N 46°36' W 124°15'2 4.7
2017-Oct-13 05:00N 46°38' W 124°16'3 5.1
2017-Oct-13 04:30N 46°41' W 124°17'3 5.2
2017-Oct-13 04:00N 46°43' W 124°17'3 5.3
2017-Oct-13 03:30N 46°46' W 124°18'2 4.9
2017-Oct-13 03:00N 46°48' W 124°19'3 4.7
2017-Oct-13 02:21N 46°51' W 124°19'2 4.7
2017-Oct-13 02:00N 46°53' W 124°20'3 5.0
2017-Oct-13 01:30N 46°55' W 124°21'3 5.6
2017-Oct-13 01:00N 46°58' W 124°23'15 0.5
2017-Oct-11 21:55N 46°58' W 124°44'3 7.5
2017-Oct-11 21:29N 46°56' W 124°41'4 7.7
2017-Oct-11 21:00N 46°53' W 124°37'4 8.1
2017-Oct-11 20:28N 46°49' W 124°36'4 8.2
2017-Oct-11 20:00N 46°45' W 124°34'4 8.0
2017-Oct-11 19:30N 46°42' W 124°32'4 8.2
2017-Oct-11 19:00N 46°38' W 124°29'4 8.1
2017-Oct-11 18:30N 46°34' W 124°29'4 7.9
2017-Oct-11 18:00N 46°30' W 124°30'3 5.9
2017-Oct-11 17:30N 46°32' W 124°33'4 8.6
2017-Oct-11 17:00N 46°34' W 124°39'40 2.3
2017-Oct-11 00:00N 46°11' W 123°52'0 0.0
2017-Oct-10 23:30N 46°11' W 123°52'0 0.0
2017-Oct-10 23:00N 46°11' W 123°52'0 0.0
2017-Oct-10 22:30N 46°11' W 123°52'0 0.0
2017-Oct-10 22:00N 46°11' W 123°52'0 0.0
2017-Oct-10 21:30N 46°11' W 123°52'0 0.0
2017-Oct-10 21:00N 46°11' W 123°52'0 0.0
2017-Oct-10 20:30N 46°11' W 123°52'0 0.0
2017-Oct-10 20:01N 46°11' W 123°52'0 0.0
2017-Oct-10 19:30N 46°11' W 123°52'0 0.0
2017-Oct-10 19:01N 46°11' W 123°52'0 0.5
2017-Oct-10 18:30N 46°11' W 123°52'3 6.3
2017-Oct-10 18:00N 46°12' W 123°56'3 6.3
2017-Oct-10 17:30N 46°15' W 123°60'3 5.3
2017-Oct-10 17:00N 46°15' W 124°03'2 4.3
2017-Oct-10 16:31N 46°14' W 124°06'4 7.2
2017-Oct-10 16:00N 46°11' W 124°06'4 7.2
2017-Oct-10 15:26N 46°07' W 124°05'3 7.7
2017-Oct-10 15:00N 46°03' W 124°04'8 7.8
2017-Oct-10 14:00N 45°56' W 124°04'4 7.6
2017-Oct-10 13:30N 45°52' W 124°03'4 7.8
2017-Oct-10 13:00N 45°48' W 124°03'6 7.4
2017-Oct-10 12:15N 45°42' W 124°03'2 7.4
2017-Oct-10 12:00N 45°41' W 124°03'4 7.3
2017-Oct-10 11:30N 45°37' W 124°04'4 7.3
2017-Oct-10 11:00N 45°33' W 124°04'4 7.2
2017-Oct-10 10:30N 45°30' W 124°03'3 6.9
2017-Oct-10 10:00N 45°26' W 124°04'5 6.8
2017-Oct-10 09:18N 45°21' W 124°04'68 6.3
2017-Oct-09 22:36N 44°19' W 124°40'1 6.4
2017-Oct-09 22:29N 44°18' W 124°40'3 6.5
2017-Oct-09 22:00N 44°17' W 124°44'3 6.5
2017-Oct-09 21:30N 44°15' W 124°48'3 6.9
2017-Oct-09 21:00N 44°13' W 124°52'3 7.0
2017-Oct-09 20:30N 44°11' W 124°55'1 2.0
2017-Oct-09 20:00N 44°10' W 124°57'1 2.3
2017-Oct-09 19:30N 44°11' W 124°58'3 2.2
2017-Oct-09 18:19N 44°14' W 124°57'1 2.7
2017-Oct-09 18:00N 44°14' W 124°56'18 3.1
2017-Oct-09 11:59N 44°32' W 124°50'37 9.2
2017-Oct-09 08:00N 45°07' W 124°35'4 9.2
2017-Oct-09 07:30N 45°12' W 124°33'5 9.5
2017-Oct-09 07:00N 45°16' W 124°31'5 9.5
2017-Oct-09 06:30N 45°21' W 124°29'5 9.5
2017-Oct-09 06:01N 45°25' W 124°28'5 9.3
2017-Oct-09 05:30N 45°30' W 124°25'5 9.1
2017-Oct-09 05:00N 45°34' W 124°24'5 9.3
2017-Oct-09 04:30N 45°39' W 124°22'5 9.2
2017-Oct-09 04:00N 45°43' W 124°20'5 9.4
2017-Oct-09 03:31N 45°47' W 124°18'5 9.4
2017-Oct-09 03:00N 45°52' W 124°16'5 9.2
2017-Oct-09 02:30N 45°56' W 124°14'4 8.9
2017-Oct-09 02:00N 46°01' W 124°13'4 8.7
2017-Oct-09 01:31N 46°05' W 124°11'5 7.8
2017-Oct-09 00:49N 46°10' W 124°08'3 8.7
2017-Oct-09 00:30N 46°12' W 124°07'4 8.2
2017-Oct-09 00:00N 46°15' W 124°03'4 8.8
2017-Oct-08 23:31N 46°13' W 123°57'4 7.2
2017-Oct-08 23:00N 46°11' W 123°53'1 0.8
2017-Oct-08 22:16N 46°11' W 123°52'0 0.0
2017-Oct-08 22:01N 46°11' W 123°52'0 0.0
2017-Oct-08 21:30N 46°11' W 123°52'0 0.0
2017-Oct-08 21:00N 46°11' W 123°52'0 0.0
2017-Oct-08 20:30N 46°11' W 123°52'0 0.0
2017-Oct-08 20:01N 46°11' W 123°52'0 0.0
2017-Oct-08 19:30N 46°11' W 123°52'0 0.0
2017-Oct-08 19:00N 46°11' W 123°52'0 0.0
2017-Oct-08 18:30N 46°11' W 123°52'0 0.0
2017-Oct-08 17:47N 46°11' W 123°52'0 0.0
2017-Oct-08 17:31N 46°11' W 123°52'0 0.0
2017-Oct-08 17:00N 46°11' W 123°52'0 0.0
2017-Oct-08 16:30N 46°11' W 123°52'0 0.0
2017-Oct-08 16:00N 46°11' W 123°52'0 0.0
2017-Oct-08 15:30N 46°11' W 123°52'0 0.0
2017-Oct-08 14:47N 46°11' W 123°52'0 0.0
2017-Oct-08 14:25N 46°11' W 123°52'0 0.0
2017-Oct-08 14:01N 46°11' W 123°52'0 0.0
2017-Oct-08 13:30N 46°11' W 123°52'0 0.0
2017-Oct-08 13:01N 46°11' W 123°52'0 0.0
2017-Oct-08 12:30N 46°11' W 123°52'0 0.0
2017-Oct-08 12:01N 46°11' W 123°52'0 0.0
2017-Oct-08 11:30N 46°11' W 123°52'0 0.0
2017-Oct-08 11:01N 46°11' W 123°52'0 0.0
2017-Oct-08 10:30N 46°11' W 123°52'0 0.0
2017-Oct-08 10:00N 46°11' W 123°52'0 0.0
2017-Oct-08 09:30N 46°11' W 123°52'0 0.0
2017-Oct-08 09:00N 46°11' W 123°52'0 0.0
2017-Oct-08 08:20N 46°11' W 123°52'0 0.0
2017-Oct-08 08:01N 46°11' W 123°52'0 0.0
2017-Oct-08 07:30N 46°11' W 123°52'0 0.0
2017-Oct-08 07:00N 46°11' W 123°52'0 0.0
2017-Oct-08 06:30N 46°11' W 123°52'0 0.0
2017-Oct-08 06:00N 46°11' W 123°52'0 0.0
2017-Oct-08 05:30N 46°11' W 123°52'0 0.0
2017-Oct-08 05:00N 46°11' W 123°52'0 0.0
2017-Oct-08 04:30N 46°11' W 123°52'0 0.0
2017-Oct-08 04:00N 46°11' W 123°52'0 0.0
2017-Oct-08 03:20N 46°11' W 123°52'0 0.0
2017-Oct-08 03:00N 46°11' W 123°52'0 0.0
2017-Oct-08 02:30N 46°11' W 123°52'0 0.0
2017-Oct-08 02:00N 46°11' W 123°52'0 0.0
2017-Oct-08 01:30N 46°11' W 123°52'0 0.0
2017-Oct-08 00:58N 46°11' W 123°52'0 0.0
2017-Oct-08 00:30N 46°11' W 123°52'0 0.0
2017-Oct-08 00:00N 46°11' W 123°52'0 0.0
2017-Oct-07 23:31N 46°11' W 123°52'0 0.0
2017-Oct-07 23:00N 46°11' W 123°52'0 0.0
2017-Oct-07 22:31N 46°11' W 123°52'0 0.0
2017-Oct-07 22:00N 46°11' W 123°52'0 0.0
2017-Oct-07 21:31N 46°11' W 123°52'0 0.0
2017-Oct-07 21:00N 46°11' W 123°52'4 7.1
2017-Oct-07 20:30N 46°13' W 123°57'510.7
2017-Oct-07 20:00N 46°15' W 124°03'5 9.9
2017-Oct-07 19:30N 46°13' W 124°09'5 9.4
2017-Oct-07 19:00N 46°10' W 124°14'5 9.5
2017-Oct-07 18:30N 46°06' W 124°19'5 9.5
2017-Oct-07 18:00N 46°02' W 124°23'5 9.7
2017-Oct-07 17:30N 45°59' W 124°28'  

Dump ship's entire track history